Butters, North Carolina
Current Conditions -  °F | °C
As of 12:35 PM on Thursday 23 Oct 2014 (Local Time) from KEYF Reporting Station
Clear Clear  
Wind Chill: 63°   Ceiling: Unl
Heat Index: 63°   Visibility: 10mi
Dew Point: 42°   Wind: 9mph
Humidity: 46%   Direction: 310°NW
Pressure: 30.01"   Gusts: NA
Location:  34.5603°N, 78.7711°W
Report Text: KEYF 231635Z AUTO 31008KT 10SM CLR 17/06 A3001 RMK AO2 T01710055
Loading
Personal Weather Stations






























Interactive Weather Map
Tropical Storm Tracking
New forecast layout! Learn more

10-Day Weather Forecast

Advertisements
Track Severe Weather on mobile